Neptune Antlia — S6BE — position and weather

sailwx.info

Track history (hours):
 
Tides and Currents Weather Stations Pressure Air Temp Water Temp Dewpoint Dewpoint Depression Visibility Wind Speed Wind Dir Waves Ship Positions

Neptune Antlia

Last reported at 2018-Feb-10 01:22 UTC. Time now 2018-Feb-23 01:00 UTC.
Position N 33°23' W 009°16'.
Warning: this ship's position is 12 days out of date.

Type: Cargo ship. MMSI: 563737000.

Date/timePositionNaut miles runAvg speedWind from/ knotsBaromVisibWave heightAir tempDewpointWater temp
2018-Feb-10 01:22N 33°23' W 009°16'514.3
2018-Feb-10 01:00N 33°27' W 009°12'714.0
2018-Feb-10 00:30N 33°31' W 009°06'714.2
2018-Feb-10 00:00N 33°37' W 008°60'714.2
2018-Feb-09 23:30N 33°42' W 008°54'713.8
2018-Feb-09 23:00N 33°47' W 008°48'314.0
2018-Feb-09 22:46N 33°49' W 008°45'1013.8
2018-Feb-09 22:01N 33°56' W 008°36'2013.4
2018-Feb-09 20:31N 34°11' W 008°19'17412.9
2018-Feb-09 07:00N 35°59' W 005°32'1010.2
2018-Feb-09 06:00N 36°06' W 005°23'2 3.8
2018-Feb-09 05:30N 36°07' W 005°22'3 0.1
2018-Feb-08 09:30N 36°05' W 005°20'7 6.6
2018-Feb-08 08:30N 36°07' W 005°12'22 8.7
2018-Feb-08 06:00N 36°09' W 004°45'1413.9
2018-Feb-08 05:00N 36°12' W 004°28'1414.0
2018-Feb-08 04:00N 36°14' W 004°11'713.6
2018-Feb-08 03:30N 36°14' W 004°03'714.0
2018-Feb-08 03:00N 36°14' W 003°54'714.6
2018-Feb-08 02:30N 36°15' W 003°45'1514.9
2018-Feb-08 01:30N 36°19' W 003°27'714.7
2018-Feb-08 01:00N 36°21' W 003°18'714.8
2018-Feb-08 00:30N 36°21' W 003°09'815.0
2018-Feb-08 00:00N 36°21' W 002°60'714.6
2018-Feb-07 23:30N 36°22' W 002°51'714.7
2018-Feb-07 23:00N 36°23' W 002°42'714.4
2018-Feb-07 22:30N 36°24' W 002°33'714.0
2018-Feb-07 22:00N 36°24' W 002°24'713.6
2018-Feb-07 21:31N 36°25' W 002°16'66713.8
2018-Feb-05 21:14N 43°05' E 009°18'414.3
2018-Feb-05 20:59N 43°07' E 009°23'713.9
2018-Feb-05 20:30N 43°10' E 009°31'714.1
2018-Feb-05 20:00N 43°13' E 009°39'2713.7
2018-Feb-05 18:00N 43°29' E 010°10'611.2
2018-Feb-05 17:30N 43°32' E 010°16'1 2.9
2018-Feb-05 17:00N 43°33' E 010°18'0 0.0
2018-Feb-05 16:30N 43°33' E 010°18'0 0.0
2018-Feb-05 16:00N 43°33' E 010°18'0 0.0
2018-Feb-05 15:30N 43°33' E 010°18'0 0.0
2018-Feb-05 15:00N 43°33' E 010°18'0 0.0
2018-Feb-05 14:30N 43°33' E 010°18'0 0.0
2018-Feb-05 14:00N 43°33' E 010°18'0 0.0
2018-Feb-05 13:30N 43°33' E 010°18'0 0.0
2018-Feb-05 13:00N 43°33' E 010°18'0 0.0
2018-Feb-05 12:30N 43°33' E 010°18'0 0.0
2018-Feb-05 12:00N 43°33' E 010°18'0 0.0
2018-Feb-05 11:30N 43°33' E 010°18'0 0.0
2018-Feb-05 11:00N 43°33' E 010°18'0 0.0
2018-Feb-05 10:30N 43°33' E 010°18'0 0.0
2018-Feb-05 10:00N 43°33' E 010°18'0 0.0
2018-Feb-05 09:30N 43°33' E 010°18'0 0.0
2018-Feb-05 09:00N 43°33' E 010°18'0 0.0
2018-Feb-05 08:27N 43°33' E 010°18'0 0.0
2018-Feb-05 08:00N 43°33' E 010°18'0 0.0
2018-Feb-05 07:30N 43°33' E 010°18'0 0.0
2018-Feb-05 07:00N 43°33' E 010°18'0 0.0
2018-Feb-05 06:30N 43°33' E 010°18'0 0.0
2018-Feb-05 05:27N 43°33' E 010°18'0 0.0
2018-Feb-05 05:00N 43°33' E 010°18'0 0.0
2018-Feb-05 04:24N 43°33' E 010°18'0 0.0
2018-Feb-05 04:00N 43°33' E 010°18'0 0.0
2018-Feb-05 03:30N 43°33' E 010°18'0 0.0
2018-Feb-05 03:00N 43°33' E 010°18'0 0.0
2018-Feb-05 02:30N 43°33' E 010°18'0 0.0
2018-Feb-05 02:00N 43°33' E 010°18'0 0.0
2018-Feb-05 01:30N 43°33' E 010°18'0 0.0
2018-Feb-05 01:00N 43°33' E 010°18'0 0.0
2018-Feb-05 00:30N 43°33' E 010°18'0 0.0
2018-Feb-05 00:00N 43°33' E 010°18'0 0.0
2018-Feb-04 23:30N 43°33' E 010°18'0 0.0
2018-Feb-04 23:00N 43°33' E 010°18'0 0.0
2018-Feb-04 22:30N 43°33' E 010°18'0 0.0
2018-Feb-04 22:00N 43°33' E 010°18'0 0.0
2018-Feb-04 21:29N 43°33' E 010°18'0 0.0
2018-Feb-04 20:59N 43°33' E 010°18'0 0.0
2018-Feb-04 19:56N 43°33' E 010°18'0 0.0
2018-Feb-04 19:29N 43°33' E 010°18'0 0.0
2018-Feb-04 18:59N 43°33' E 010°18'0 0.0
2018-Feb-04 18:29N 43°33' E 010°18'0 0.0
2018-Feb-04 17:59N 43°33' E 010°18'0 0.0
2018-Feb-04 17:29N 43°33' E 010°18'0 0.0
2018-Feb-04 15:29N 43°33' E 010°18'0 0.0
2018-Feb-04 14:59N 43°33' E 010°18'0 0.0
2018-Feb-04 14:29N 43°33' E 010°18'0 0.0
2018-Feb-04 13:56N 43°33' E 010°18'0 0.0
2018-Feb-04 13:29N 43°33' E 010°18'0 0.0
2018-Feb-04 12:59N 43°33' E 010°18'0 0.0
2018-Feb-04 12:29N 43°33' E 010°18'0 0.0
2018-Feb-04 11:59N 43°33' E 010°18'0 0.0
2018-Feb-04 11:29N 43°33' E 010°18'0 0.0
2018-Feb-04 09:59N 43°33' E 010°18'0 0.0
2018-Feb-04 08:59N 43°33' E 010°18'0 0.0
2018-Feb-04 08:29N 43°33' E 010°18'0 0.0
2018-Feb-04 07:59N 43°33' E 010°18'0 0.0
2018-Feb-04 07:26N 43°33' E 010°18'0 0.0
2018-Feb-04 06:59N 43°33' E 010°18'0 0.0
2018-Feb-04 06:26N 43°33' E 010°18'0 0.0
2018-Feb-04 05:59N 43°33' E 010°18'0 0.0
2018-Feb-04 05:29N 43°33' E 010°18'0 0.0
2018-Feb-04 04:59N 43°33' E 010°18'0 0.0
2018-Feb-04 04:29N 43°33' E 010°18'0 0.0
2018-Feb-04 03:59N 43°33' E 010°18'0 0.0
2018-Feb-04 03:29N 43°33' E 010°18'0 0.0
2018-Feb-04 02:59N 43°33' E 010°18'0 0.0
2018-Feb-04 02:29N 43°33' E 010°18'0 0.0
2018-Feb-04 01:59N 43°33' E 010°18'0 0.0
2018-Feb-04 01:29N 43°33' E 010°18'0 0.0
2018-Feb-04 00:59N 43°33' E 010°18'0 0.0
2018-Feb-04 00:29N 43°33' E 010°18'0 0.0
2018-Feb-03 23:59N 43°33' E 010°18'0 0.0
2018-Feb-03 23:29N 43°33' E 010°18'0 0.0
2018-Feb-03 22:59N 43°33' E 010°18'0 0.0
2018-Feb-03 22:29N 43°33' E 010°18'0 0.0
2018-Feb-03 21:59N 43°33' E 010°18'0 0.0
2018-Feb-03 21:29N 43°33' E 010°18'0 0.0
2018-Feb-03 20:59N 43°33' E 010°18'0 0.0
2018-Feb-03 20:29N 43°33' E 010°18'0 0.0
2018-Feb-03 19:59N 43°33' E 010°18'0 0.0
2018-Feb-03 18:26N 43°33' E 010°18'0 0.0
2018-Feb-03 17:59N 43°33' E 010°18'0 0.0
2018-Feb-03 17:29N 43°33' E 010°18'0 0.0
2018-Feb-03 17:00N 43°33' E 010°18'4 3.7
2018-Feb-03 16:01N 43°31' E 010°14'2 4.7
2018-Feb-03 15:31N 43°29' E 010°12'612.6
2018-Feb-03 15:00N 43°24' E 010°07'714.4
2018-Feb-03 14:30N 43°19' E 009°59'714.7
2018-Feb-03 14:00N 43°17' E 009°50'714.8
2018-Feb-03 13:30N 43°14' E 009°41'714.6
2018-Feb-03 13:00N 43°11' E 009°31'714.6
2018-Feb-03 12:30N 43°09' E 009°22'714.7
2018-Feb-03 12:00N 43°06' E 009°12'31311.8
2018-Feb-02 09:26N 41°15' E 002°38'512.3
2018-Feb-02 09:00N 41°12' E 002°31'612.7
2018-Feb-02 08:30N 41°10' E 002°23'713.3
2018-Feb-02 08:00N 41°08' E 002°15'714.1
2018-Feb-02 07:29N 41°06' E 002°06'714.1
2018-Feb-02 07:00N 41°04' E 001°57'914.0
2018-Feb-02 06:21N 41°03' E 001°45'514.1
2018-Feb-02 06:00N 41°03' E 001°38'714.2
2018-Feb-02 05:30N 41°03' E 001°29'  
Track history (hours):
 
Tides and Currents Weather Stations Pressure Air Temp Water Temp Dewpoint Dewpoint Depression Visibility Wind Speed Wind Dir Waves Ship Positions

Neptune Antlia

Last reported at 2018-Feb-10 01:22 UTC. Time now 2018-Feb-23 01:00 UTC.
Position N 33°23' W 009°16'.
Warning: this ship's position is 12 days out of date.

Type: Cargo ship. MMSI: 563737000.

Date/timePositionNaut miles runAvg speedWind from/ knotsBaromVisibWave heightAir tempDewpointWater temp
2018-Feb-10 01:22N 33°23' W 009°16'514.3
2018-Feb-10 01:00N 33°27' W 009°12'714.0
2018-Feb-10 00:30N 33°31' W 009°06'714.2
2018-Feb-10 00:00N 33°37' W 008°60'714.2
2018-Feb-09 23:30N 33°42' W 008°54'713.8
2018-Feb-09 23:00N 33°47' W 008°48'314.0
2018-Feb-09 22:46N 33°49' W 008°45'1013.8
2018-Feb-09 22:01N 33°56' W 008°36'2013.4
2018-Feb-09 20:31N 34°11' W 008°19'17412.9
2018-Feb-09 07:00N 35°59' W 005°32'1010.2
2018-Feb-09 06:00N 36°06' W 005°23'2 3.8
2018-Feb-09 05:30N 36°07' W 005°22'3 0.1
2018-Feb-08 09:30N 36°05' W 005°20'7 6.6
2018-Feb-08 08:30N 36°07' W 005°12'22 8.7
2018-Feb-08 06:00N 36°09' W 004°45'1413.9
2018-Feb-08 05:00N 36°12' W 004°28'1414.0
2018-Feb-08 04:00N 36°14' W 004°11'713.6
2018-Feb-08 03:30N 36°14' W 004°03'714.0
2018-Feb-08 03:00N 36°14' W 003°54'714.6
2018-Feb-08 02:30N 36°15' W 003°45'1514.9
2018-Feb-08 01:30N 36°19' W 003°27'714.7
2018-Feb-08 01:00N 36°21' W 003°18'714.8
2018-Feb-08 00:30N 36°21' W 003°09'815.0
2018-Feb-08 00:00N 36°21' W 002°60'714.6
2018-Feb-07 23:30N 36°22' W 002°51'714.7
2018-Feb-07 23:00N 36°23' W 002°42'714.4
2018-Feb-07 22:30N 36°24' W 002°33'714.0
2018-Feb-07 22:00N 36°24' W 002°24'713.6
2018-Feb-07 21:31N 36°25' W 002°16'66713.8
2018-Feb-05 21:14N 43°05' E 009°18'414.3
2018-Feb-05 20:59N 43°07' E 009°23'713.9
2018-Feb-05 20:30N 43°10' E 009°31'714.1
2018-Feb-05 20:00N 43°13' E 009°39'2713.7
2018-Feb-05 18:00N 43°29' E 010°10'611.2
2018-Feb-05 17:30N 43°32' E 010°16'1 2.9
2018-Feb-05 17:00N 43°33' E 010°18'0 0.0
2018-Feb-05 16:30N 43°33' E 010°18'0 0.0
2018-Feb-05 16:00N 43°33' E 010°18'0 0.0
2018-Feb-05 15:30N 43°33' E 010°18'0 0.0
2018-Feb-05 15:00N 43°33' E 010°18'0 0.0
2018-Feb-05 14:30N 43°33' E 010°18'0 0.0
2018-Feb-05 14:00N 43°33' E 010°18'0 0.0
2018-Feb-05 13:30N 43°33' E 010°18'0 0.0
2018-Feb-05 13:00N 43°33' E 010°18'0 0.0
2018-Feb-05 12:30N 43°33' E 010°18'0 0.0
2018-Feb-05 12:00N 43°33' E 010°18'0 0.0
2018-Feb-05 11:30N 43°33' E 010°18'0 0.0
2018-Feb-05 11:00N 43°33' E 010°18'0 0.0
2018-Feb-05 10:30N 43°33' E 010°18'0 0.0
2018-Feb-05 10:00N 43°33' E 010°18'0 0.0
2018-Feb-05 09:30N 43°33' E 010°18'0 0.0
2018-Feb-05 09:00N 43°33' E 010°18'0 0.0
2018-Feb-05 08:27N 43°33' E 010°18'0 0.0
2018-Feb-05 08:00N 43°33' E 010°18'0 0.0
2018-Feb-05 07:30N 43°33' E 010°18'0 0.0
2018-Feb-05 07:00N 43°33' E 010°18'0 0.0
2018-Feb-05 06:30N 43°33' E 010°18'0 0.0
2018-Feb-05 05:27N 43°33' E 010°18'0 0.0
2018-Feb-05 05:00N 43°33' E 010°18'0 0.0
2018-Feb-05 04:24N 43°33' E 010°18'0 0.0
2018-Feb-05 04:00N 43°33' E 010°18'0 0.0
2018-Feb-05 03:30N 43°33' E 010°18'0 0.0
2018-Feb-05 03:00N 43°33' E 010°18'0 0.0
2018-Feb-05 02:30N 43°33' E 010°18'0 0.0
2018-Feb-05 02:00N 43°33' E 010°18'0 0.0
2018-Feb-05 01:30N 43°33' E 010°18'0 0.0
2018-Feb-05 01:00N 43°33' E 010°18'0 0.0
2018-Feb-05 00:30N 43°33' E 010°18'0 0.0
2018-Feb-05 00:00N 43°33' E 010°18'0 0.0
2018-Feb-04 23:30N 43°33' E 010°18'0 0.0
2018-Feb-04 23:00N 43°33' E 010°18'0 0.0
2018-Feb-04 22:30N 43°33' E 010°18'0 0.0
2018-Feb-04 22:00N 43°33' E 010°18'0 0.0
2018-Feb-04 21:29N 43°33' E 010°18'0 0.0
2018-Feb-04 20:59N 43°33' E 010°18'0 0.0
2018-Feb-04 19:56N 43°33' E 010°18'0 0.0
2018-Feb-04 19:29N 43°33' E 010°18'0 0.0
2018-Feb-04 18:59N 43°33' E 010°18'0 0.0
2018-Feb-04 18:29N 43°33' E 010°18'0 0.0
2018-Feb-04 17:59N 43°33' E 010°18'0 0.0
2018-Feb-04 17:29N 43°33' E 010°18'0 0.0
2018-Feb-04 15:29N 43°33' E 010°18'0 0.0
2018-Feb-04 14:59N 43°33' E 010°18'0 0.0
2018-Feb-04 14:29N 43°33' E 010°18'0 0.0
2018-Feb-04 13:56N 43°33' E 010°18'0 0.0
2018-Feb-04 13:29N 43°33' E 010°18'0 0.0
2018-Feb-04 12:59N 43°33' E 010°18'0 0.0
2018-Feb-04 12:29N 43°33' E 010°18'0 0.0
2018-Feb-04 11:59N 43°33' E 010°18'0 0.0
2018-Feb-04 11:29N 43°33' E 010°18'0 0.0
2018-Feb-04 09:59N 43°33' E 010°18'0 0.0
2018-Feb-04 08:59N 43°33' E 010°18'0 0.0
2018-Feb-04 08:29N 43°33' E 010°18'0 0.0
2018-Feb-04 07:59N 43°33' E 010°18'0 0.0
2018-Feb-04 07:26N 43°33' E 010°18'0 0.0
2018-Feb-04 06:59N 43°33' E 010°18'0 0.0
2018-Feb-04 06:26N 43°33' E 010°18'0 0.0
2018-Feb-04 05:59N 43°33' E 010°18'0 0.0
2018-Feb-04 05:29N 43°33' E 010°18'0 0.0
2018-Feb-04 04:59N 43°33' E 010°18'0 0.0
2018-Feb-04 04:29N 43°33' E 010°18'0 0.0
2018-Feb-04 03:59N 43°33' E 010°18'0 0.0
2018-Feb-04 03:29N 43°33' E 010°18'0 0.0
2018-Feb-04 02:59N 43°33' E 010°18'0 0.0
2018-Feb-04 02:29N 43°33' E 010°18'0 0.0
2018-Feb-04 01:59N 43°33' E 010°18'0 0.0
2018-Feb-04 01:29N 43°33' E 010°18'0 0.0
2018-Feb-04 00:59N 43°33' E 010°18'0 0.0
2018-Feb-04 00:29N 43°33' E 010°18'0 0.0
2018-Feb-03 23:59N 43°33' E 010°18'0 0.0
2018-Feb-03 23:29N 43°33' E 010°18'0 0.0
2018-Feb-03 22:59N 43°33' E 010°18'0 0.0
2018-Feb-03 22:29N 43°33' E 010°18'0 0.0
2018-Feb-03 21:59N 43°33' E 010°18'0 0.0
2018-Feb-03 21:29N 43°33' E 010°18'0 0.0
2018-Feb-03 20:59N 43°33' E 010°18'0 0.0
2018-Feb-03 20:29N 43°33' E 010°18'0 0.0
2018-Feb-03 19:59N 43°33' E 010°18'0 0.0
2018-Feb-03 18:26N 43°33' E 010°18'0 0.0
2018-Feb-03 17:59N 43°33' E 010°18'0 0.0
2018-Feb-03 17:29N 43°33' E 010°18'0 0.0
2018-Feb-03 17:00N 43°33' E 010°18'4 3.7
2018-Feb-03 16:01N 43°31' E 010°14'2 4.7
2018-Feb-03 15:31N 43°29' E 010°12'612.6
2018-Feb-03 15:00N 43°24' E 010°07'714.4
2018-Feb-03 14:30N 43°19' E 009°59'714.7
2018-Feb-03 14:00N 43°17' E 009°50'714.8
2018-Feb-03 13:30N 43°14' E 009°41'714.6
2018-Feb-03 13:00N 43°11' E 009°31'714.6
2018-Feb-03 12:30N 43°09' E 009°22'714.7
2018-Feb-03 12:00N 43°06' E 009°12'31311.8
2018-Feb-02 09:26N 41°15' E 002°38'512.3
2018-Feb-02 09:00N 41°12' E 002°31'612.7
2018-Feb-02 08:30N 41°10' E 002°23'713.3
2018-Feb-02 08:00N 41°08' E 002°15'714.1
2018-Feb-02 07:29N 41°06' E 002°06'714.1
2018-Feb-02 07:00N 41°04' E 001°57'914.0
2018-Feb-02 06:21N 41°03' E 001°45'514.1
2018-Feb-02 06:00N 41°03' E 001°38'714.2
2018-Feb-02 05:30N 41°03' E 001°29'  

Dump ship's entire track history